sensor_id;sensor_type;location;lat;lon;timestamp;temperature;humidity
44671;DHT22;48397;53.016;-2.260;2023-03-08T00:01:21;-0.70;99.90
44671;DHT22;48397;53.016;-2.260;2023-03-08T00:03:53;0.20;99.90
44671;DHT22;48397;53.016;-2.260;2023-03-08T00:06:22;-1.90;99.90
44671;DHT22;48397;53.016;-2.260;2023-03-08T00:08:54;-2.00;99.90
44671;DHT22;48397;53.016;-2.260;2023-03-08T00:13:51;-2.00;99.90
44671;DHT22;48397;53.016;-2.260;2023-03-08T00:16:19;-2.00;99.90
44671;DHT22;48397;53.016;-2.260;2023-03-08T00:18:47;-2.00;99.90
44671;DHT22;48397;53.016;-2.260;2023-03-08T00:21:16;-1.90;99.90
44671;DHT22;48397;53.016;-2.260;2023-03-08T00:23:45;-2.00;99.90
44671;DHT22;48397;53.016;-2.260;2023-03-08T00:26:13;-1.10;99.90
44671;DHT22;48397;53.016;-2.260;2023-03-08T00:28:41;-1.90;99.90
44671;DHT22;48397;53.016;-2.260;2023-03-08T00:31:11;-1.80;99.90
44671;DHT22;48397;53.016;-2.260;2023-03-08T00:33:39;-1.80;99.90
44671;DHT22;48397;53.016;-2.260;2023-03-08T00:36:14;-1.80;99.90
44671;DHT22;48397;53.016;-2.260;2023-03-08T00:38:43;-1.80;99.90
44671;DHT22;48397;53.016;-2.260;2023-03-08T00:41:13;-1.70;99.90
44671;DHT22;48397;53.016;-2.260;2023-03-08T00:43:41;-0.90;99.90
44671;DHT22;48397;53.016;-2.260;2023-03-08T00:46:10;-1.70;99.90
44671;DHT22;48397;53.016;-2.260;2023-03-08T00:48:39;-1.70;99.90
44671;DHT22;48397;53.016;-2.260;2023-03-08T00:51:07;-1.60;99.90
44671;DHT22;48397;53.016;-2.260;2023-03-08T00:53:35;-1.70;99.90
44671;DHT22;48397;53.016;-2.260;2023-03-08T00:56:03;-1.70;99.90
44671;DHT22;48397;53.016;-2.260;2023-03-08T00:58:32;-1.70;99.90
44671;DHT22;48397;53.016;-2.260;2023-03-08T01:01:00;-1.70;99.90
44671;DHT22;48397;53.016;-2.260;2023-03-08T01:03:28;-0.60;99.90
44671;DHT22;48397;53.016;-2.260;2023-03-08T01:05:57;-1.60;99.90
44671;DHT22;48397;53.016;-2.260;2023-03-08T01:08:25;-1.60;99.90
44671;DHT22;48397;53.016;-2.260;2023-03-08T01:10:56;-1.60;99.90
44671;DHT22;48397;53.016;-2.260;2023-03-08T01:13:28;-1.50;99.90
44671;DHT22;48397;53.016;-2.260;2023-03-08T01:15:56;-1.40;99.90
44671;DHT22;48397;53.016;-2.260;2023-03-08T01:18:24;-1.50;99.90
44671;DHT22;48397;53.016;-2.260;2023-03-08T01:21:00;-1.50;99.90
44671;DHT22;48397;53.016;-2.260;2023-03-08T01:23:29;-1.50;99.90
44671;DHT22;48397;53.016;-2.260;2023-03-08T01:26:05;-1.40;99.90
44671;DHT22;48397;53.016;-2.260;2023-03-08T01:28:33;-1.40;99.90
44671;DHT22;48397;53.016;-2.260;2023-03-08T01:31:07;-1.50;99.90
44671;DHT22;48397;53.016;-2.260;2023-03-08T01:33:37;-1.50;99.90
44671;DHT22;48397;53.016;-2.260;2023-03-08T01:36:06;-1.40;99.90
44671;DHT22;48397;53.016;-2.260;2023-03-08T01:38:35;-1.50;99.90
44671;DHT22;48397;53.016;-2.260;2023-03-08T01:41:04;0.20;99.90
44671;DHT22;48397;53.016;-2.260;2023-03-08T01:43:37;-1.50;99.90
44671;DHT22;48397;53.016;-2.260;2023-03-08T01:46:18;-1.40;99.90
44671;DHT22;48397;53.016;-2.260;2023-03-08T01:52:10;-1.40;99.90
44671;DHT22;48397;53.016;-2.260;2023-03-08T01:54:47;-1.30;99.90
44671;DHT22;48397;53.016;-2.260;2023-03-08T01:57:29;-1.30;99.90
44671;DHT22;48397;53.016;-2.260;2023-03-08T02:00:04;-1.30;99.90
44671;DHT22;48397;53.016;-2.260;2023-03-08T02:02:42;-1.30;99.90
44671;DHT22;48397;53.016;-2.260;2023-03-08T02:05:11;-0.10;99.90
44671;DHT22;48397;53.016;-2.260;2023-03-08T02:07:40;-1.50;99.90
44671;DHT22;48397;53.016;-2.260;2023-03-08T02:10:09;-1.30;99.90
44671;DHT22;48397;53.016;-2.260;2023-03-08T02:12:39;-1.30;99.90
44671;DHT22;48397;53.016;-2.260;2023-03-08T02:15:10;-1.30;99.90
44671;DHT22;48397;53.016;-2.260;2023-03-08T02:17:40;-1.30;99.90
44671;DHT22;48397;53.016;-2.260;2023-03-08T02:20:18;-1.30;99.90
44671;DHT22;48397;53.016;-2.260;2023-03-08T02:22:49;-1.30;99.90
44671;DHT22;48397;53.016;-2.260;2023-03-08T02:25:22;-1.30;99.90
44671;DHT22;48397;53.016;-2.260;2023-03-08T02:27:52;-1.20;99.90
44671;DHT22;48397;53.016;-2.260;2023-03-08T02:30:28;-1.20;99.90
44671;DHT22;48397;53.016;-2.260;2023-03-08T02:32:56;-1.20;99.90
44671;DHT22;48397;53.016;-2.260;2023-03-08T02:35:28;-1.20;99.90
44671;DHT22;48397;53.016;-2.260;2023-03-08T02:37:56;-1.20;99.90
44671;DHT22;48397;53.016;-2.260;2023-03-08T02:40:24;-1.20;99.90
44671;DHT22;48397;53.016;-2.260;2023-03-08T02:42:52;-1.20;99.90
44671;DHT22;48397;53.016;-2.260;2023-03-08T02:45:22;-1.20;99.90
44671;DHT22;48397;53.016;-2.260;2023-03-08T02:47:51;-1.20;99.90
44671;DHT22;48397;53.016;-2.260;2023-03-08T02:50:19;0.40;99.90
44671;DHT22;48397;53.016;-2.260;2023-03-08T02:52:46;-1.10;99.90
44671;DHT22;48397;53.016;-2.260;2023-03-08T02:55:14;-1.10;99.90
44671;DHT22;48397;53.016;-2.260;2023-03-08T02:57:42;-1.10;99.90
44671;DHT22;48397;53.016;-2.260;2023-03-08T03:00:10;-1.00;99.90
44671;DHT22;48397;53.016;-2.260;2023-03-08T03:02:38;-1.10;99.90
44671;DHT22;48397;53.016;-2.260;2023-03-08T03:05:07;-1.00;99.90
44671;DHT22;48397;53.016;-2.260;2023-03-08T03:07:40;-1.00;99.90
44671;DHT22;48397;53.016;-2.260;2023-03-08T03:10:13;-0.90;99.90
44671;DHT22;48397;53.016;-2.260;2023-03-08T03:12:43;-1.00;99.90
44671;DHT22;48397;53.016;-2.260;2023-03-08T03:15:15;-1.00;99.90
44671;DHT22;48397;53.016;-2.260;2023-03-08T03:17:45;-1.00;99.90
44671;DHT22;48397;53.016;-2.260;2023-03-08T03:20:13;-1.00;99.90
44671;DHT22;48397;53.016;-2.260;2023-03-08T03:25:09;-1.00;99.90
44671;DHT22;48397;53.016;-2.260;2023-03-08T03:30:07;1.20;99.90
44671;DHT22;48397;53.016;-2.260;2023-03-08T03:32:36;-0.90;99.90
44671;DHT22;48397;53.016;-2.260;2023-03-08T03:35:07;-0.90;99.90
44671;DHT22;48397;53.016;-2.260;2023-03-08T03:37:35;-1.00;99.90
44671;DHT22;48397;53.016;-2.260;2023-03-08T03:40:05;-1.00;99.90
44671;DHT22;48397;53.016;-2.260;2023-03-08T03:42:33;-1.00;99.90
44671;DHT22;48397;53.016;-2.260;2023-03-08T03:45:06;-1.10;99.90
44671;DHT22;48397;53.016;-2.260;2023-03-08T03:47:35;-1.00;99.90
44671;DHT22;48397;53.016;-2.260;2023-03-08T03:50:05;-1.10;99.90
44671;DHT22;48397;53.016;-2.260;2023-03-08T03:52:43;-1.10;99.90
44671;DHT22;48397;53.016;-2.260;2023-03-08T03:55:12;-1.10;99.90
44671;DHT22;48397;53.016;-2.260;2023-03-08T03:57:40;-1.10;99.90
44671;DHT22;48397;53.016;-2.260;2023-03-08T04:00:12;-1.10;99.90
44671;DHT22;48397;53.016;-2.260;2023-03-08T04:02:40;-1.10;99.90
44671;DHT22;48397;53.016;-2.260;2023-03-08T04:05:11;-1.10;99.90
44671;DHT22;48397;53.016;-2.260;2023-03-08T04:07:39;-1.10;99.90
44671;DHT22;48397;53.016;-2.260;2023-03-08T04:10:07;1.30;99.90
44671;DHT22;48397;53.016;-2.260;2023-03-08T04:12:36;-1.00;99.90
44671;DHT22;48397;53.016;-2.260;2023-03-08T04:15:05;-0.70;99.90
44671;DHT22;48397;53.016;-2.260;2023-03-08T04:17:32;-1.00;99.90
44671;DHT22;48397;53.016;-2.260;2023-03-08T04:20:01;-1.00;99.90
44671;DHT22;48397;53.016;-2.260;2023-03-08T04:22:33;-1.00;99.90
44671;DHT22;48397;53.016;-2.260;2023-03-08T04:25:12;-0.90;99.90
44671;DHT22;48397;53.016;-2.260;2023-03-08T04:27:53;-0.90;99.90
44671;DHT22;48397;53.016;-2.260;2023-03-08T04:30:21;-0.90;99.90
44671;DHT22;48397;53.016;-2.260;2023-03-08T04:32:49;-0.90;99.90
44671;DHT22;48397;53.016;-2.260;2023-03-08T04:37:51;-0.80;99.90
44671;DHT22;48397;53.016;-2.260;2023-03-08T04:40:21;-0.70;99.90
44671;DHT22;48397;53.016;-2.260;2023-03-08T04:42:57;-0.70;99.90
44671;DHT22;48397;53.016;-2.260;2023-03-08T04:45:31;-0.60;99.90
44671;DHT22;48397;53.016;-2.260;2023-03-08T04:48:03;-0.60;99.90
44671;DHT22;48397;53.016;-2.260;2023-03-08T04:50:32;-0.60;99.90
44671;DHT22;48397;53.016;-2.260;2023-03-08T04:52:59;-0.50;99.90
44671;DHT22;48397;53.016;-2.260;2023-03-08T04:55:28;-0.50;99.90
44671;DHT22;48397;53.016;-2.260;2023-03-08T04:57:56;-0.50;99.90
44671;DHT22;48397;53.016;-2.260;2023-03-08T05:00:25;-0.50;99.90
44671;DHT22;48397;53.016;-2.260;2023-03-08T05:02:53;-0.40;99.90
44671;DHT22;48397;53.016;-2.260;2023-03-08T05:05:23;-0.40;99.90
44671;DHT22;48397;53.016;-2.260;2023-03-08T05:07:52;-0.40;99.90
44671;DHT22;48397;53.016;-2.260;2023-03-08T05:10:20;-0.40;99.90
44671;DHT22;48397;53.016;-2.260;2023-03-08T05:12:49;-0.30;99.90
44671;DHT22;48397;53.016;-2.260;2023-03-08T05:15:17;1.20;99.90
44671;DHT22;48397;53.016;-2.260;2023-03-08T05:17:45;-0.30;99.90
44671;DHT22;48397;53.016;-2.260;2023-03-08T05:20:13;-0.20;99.90
44671;DHT22;48397;53.016;-2.260;2023-03-08T05:22:42;-0.20;99.90
44671;DHT22;48397;53.016;-2.260;2023-03-08T05:25:30;-0.20;99.90
44671;DHT22;48397;53.016;-2.260;2023-03-08T05:27:59;-0.20;99.90
44671;DHT22;48397;53.016;-2.260;2023-03-08T05:30:27;-0.20;99.90
44671;DHT22;48397;53.016;-2.260;2023-03-08T05:32:55;-0.20;99.90
44671;DHT22;48397;53.016;-2.260;2023-03-08T05:35:24;-0.10;99.90
44671;DHT22;48397;53.016;-2.260;2023-03-08T05:37:51;-0.10;99.90
44671;DHT22;48397;53.016;-2.260;2023-03-08T05:40:19;0.80;99.90
44671;DHT22;48397;53.016;-2.260;2023-03-08T05:42:48;-0.10;99.90
44671;DHT22;48397;53.016;-2.260;2023-03-08T05:45:17;1.10;99.90
44671;DHT22;48397;53.016;-2.260;2023-03-08T05:47:45;-0.10;99.90
44671;DHT22;48397;53.016;-2.260;2023-03-08T05:50:13;0.50;99.90
44671;DHT22;48397;53.016;-2.260;2023-03-08T05:52:42;1.10;99.90
44671;DHT22;48397;53.016;-2.260;2023-03-08T05:55:16;-0.10;99.90
44671;DHT22;48397;53.016;-2.260;2023-03-08T05:57:45;-0.10;99.90
44671;DHT22;48397;53.016;-2.260;2023-03-08T06:00:13;0.00;99.90
44671;DHT22;48397;53.016;-2.260;2023-03-08T06:02:41;0.00;99.90
44671;DHT22;48397;53.016;-2.260;2023-03-08T06:05:12;-0.10;99.90
44671;DHT22;48397;53.016;-2.260;2023-03-08T06:07:41;0.00;99.90
44671;DHT22;48397;53.016;-2.260;2023-03-08T06:10:12;0.00;99.90
44671;DHT22;48397;53.016;-2.260;2023-03-08T06:12:40;0.00;99.90
44671;DHT22;48397;53.016;-2.260;2023-03-08T06:15:11;-0.10;99.90
44671;DHT22;48397;53.016;-2.260;2023-03-08T06:17:40;-0.10;99.90
44671;DHT22;48397;53.016;-2.260;2023-03-08T06:20:09;0.00;99.90
44671;DHT22;48397;53.016;-2.260;2023-03-08T06:22:40;0.00;99.90
44671;DHT22;48397;53.016;-2.260;2023-03-08T06:25:08;0.00;99.90
44671;DHT22;48397;53.016;-2.260;2023-03-08T06:27:37;0.10;99.90
44671;DHT22;48397;53.016;-2.260;2023-03-08T06:30:13;0.10;99.90
44671;DHT22;48397;53.016;-2.260;2023-03-08T06:32:41;0.10;99.90
44671;DHT22;48397;53.016;-2.260;2023-03-08T06:35:10;1.00;99.90
44671;DHT22;48397;53.016;-2.260;2023-03-08T06:37:43;0.20;99.90
44671;DHT22;48397;53.016;-2.260;2023-03-08T06:40:11;0.40;99.90
44671;DHT22;48397;53.016;-2.260;2023-03-08T06:45:12;0.20;99.90
44671;DHT22;48397;53.016;-2.260;2023-03-08T06:47:40;0.70;99.90
44671;DHT22;48397;53.016;-2.260;2023-03-08T06:50:09;0.30;99.90
44671;DHT22;48397;53.016;-2.260;2023-03-08T06:52:40;0.30;99.90
44671;DHT22;48397;53.016;-2.260;2023-03-08T06:55:08;0.30;99.90
44671;DHT22;48397;53.016;-2.260;2023-03-08T06:57:37;0.30;99.90
44671;DHT22;48397;53.016;-2.260;2023-03-08T07:00:05;1.10;99.90
44671;DHT22;48397;53.016;-2.260;2023-03-08T07:02:32;0.30;99.90
44671;DHT22;48397;53.016;-2.260;2023-03-08T07:05:00;0.40;99.90
44671;DHT22;48397;53.016;-2.260;2023-03-08T07:07:28;0.40;99.90
44671;DHT22;48397;53.016;-2.260;2023-03-08T07:09:56;0.50;99.90
44671;DHT22;48397;53.016;-2.260;2023-03-08T07:12:24;0.50;99.90
44671;DHT22;48397;53.016;-2.260;2023-03-08T07:14:52;0.30;99.90
44671;DHT22;48397;53.016;-2.260;2023-03-08T07:17:20;0.50;99.90
44671;DHT22;48397;53.016;-2.260;2023-03-08T07:19:47;1.00;99.90
44671;DHT22;48397;53.016;-2.260;2023-03-08T07:22:15;0.60;99.90
44671;DHT22;48397;53.016;-2.260;2023-03-08T07:24:46;0.70;99.90
44671;DHT22;48397;53.016;-2.260;2023-03-08T07:27:16;2.10;99.90
44671;DHT22;48397;53.016;-2.260;2023-03-08T07:29:43;0.70;99.90
44671;DHT22;48397;53.016;-2.260;2023-03-08T07:32:12;0.70;99.90
44671;DHT22;48397;53.016;-2.260;2023-03-08T07:34:40;0.80;99.90
44671;DHT22;48397;53.016;-2.260;2023-03-08T07:37:11;0.80;99.90
44671;DHT22;48397;53.016;-2.260;2023-03-08T07:39:39;0.80;99.90
44671;DHT22;48397;53.016;-2.260;2023-03-08T07:42:08;0.90;99.90
44671;DHT22;48397;53.016;-2.260;2023-03-08T07:44:37;1.70;99.90
44671;DHT22;48397;53.016;-2.260;2023-03-08T07:47:05;1.20;99.90
44671;DHT22;48397;53.016;-2.260;2023-03-08T07:49:33;1.00;99.90
44671;DHT22;48397;53.016;-2.260;2023-03-08T07:52:01;1.20;99.90
44671;DHT22;48397;53.016;-2.260;2023-03-08T07:54:28;1.10;99.90
44671;DHT22;48397;53.016;-2.260;2023-03-08T07:56:56;1.20;99.90
44671;DHT22;48397;53.016;-2.260;2023-03-08T07:59:24;1.50;99.90
44671;DHT22;48397;53.016;-2.260;2023-03-08T08:01:52;1.20;99.90
44671;DHT22;48397;53.016;-2.260;2023-03-08T08:04:20;1.30;99.90
44671;DHT22;48397;53.016;-2.260;2023-03-08T08:06:49;1.30;99.90
44671;DHT22;48397;53.016;-2.260;2023-03-08T08:09:17;2.10;99.90
44671;DHT22;48397;53.016;-2.260;2023-03-08T08:11:45;1.40;99.90
44671;DHT22;48397;53.016;-2.260;2023-03-08T08:14:12;1.50;99.90
44671;DHT22;48397;53.016;-2.260;2023-03-08T08:16:40;1.60;99.90
44671;DHT22;48397;53.016;-2.260;2023-03-08T08:19:09;2.90;99.90
44671;DHT22;48397;53.016;-2.260;2023-03-08T08:21:37;1.60;99.90
44671;DHT22;48397;53.016;-2.260;2023-03-08T08:24:04;1.60;99.90
44671;DHT22;48397;53.016;-2.260;2023-03-08T08:26:32;1.70;99.90
44671;DHT22;48397;53.016;-2.260;2023-03-08T08:29:02;2.40;99.90
44671;DHT22;48397;53.016;-2.260;2023-03-08T08:31:30;2.90;99.90
44671;DHT22;48397;53.016;-2.260;2023-03-08T08:33:58;1.80;99.90
44671;DHT22;48397;53.016;-2.260;2023-03-08T08:36:26;1.80;99.90
44671;DHT22;48397;53.016;-2.260;2023-03-08T08:38:55;1.80;99.90
44671;DHT22;48397;53.016;-2.260;2023-03-08T08:41:23;1.90;99.90
44671;DHT22;48397;53.016;-2.260;2023-03-08T08:43:51;2.60;99.90
44671;DHT22;48397;53.016;-2.260;2023-03-08T08:46:20;2.00;99.90
44671;DHT22;48397;53.016;-2.260;2023-03-08T08:48:48;1.90;99.90
44671;DHT22;48397;53.016;-2.260;2023-03-08T08:51:16;2.40;99.90
44671;DHT22;48397;53.016;-2.260;2023-03-08T08:56:23;2.10;99.90
44671;DHT22;48397;53.016;-2.260;2023-03-08T08:58:59;2.20;99.90
44671;DHT22;48397;53.016;-2.260;2023-03-08T09:01:30;2.20;99.90
44671;DHT22;48397;53.016;-2.260;2023-03-08T09:03:59;2.30;99.90
44671;DHT22;48397;53.016;-2.260;2023-03-08T09:06:27;2.30;99.90
44671;DHT22;48397;53.016;-2.260;2023-03-08T09:08:57;2.30;99.90
44671;DHT22;48397;53.016;-2.260;2023-03-08T09:11:27;2.40;99.90
44671;DHT22;48397;53.016;-2.260;2023-03-08T09:13:55;2.50;99.90
44671;DHT22;48397;53.016;-2.260;2023-03-08T09:18:53;2.80;99.90
44671;DHT22;48397;53.016;-2.260;2023-03-08T09:21:24;2.70;99.90
44671;DHT22;48397;53.016;-2.260;2023-03-08T09:23:52;2.80;99.90
44671;DHT22;48397;53.016;-2.260;2023-03-08T09:26:19;4.10;99.90
44671;DHT22;48397;53.016;-2.260;2023-03-08T09:28:47;2.90;99.90
44671;DHT22;48397;53.016;-2.260;2023-03-08T09:31:16;3.00;99.90
44671;DHT22;48397;53.016;-2.260;2023-03-08T09:33:47;2.90;99.90
44671;DHT22;48397;53.016;-2.260;2023-03-08T09:36:15;3.00;99.90
44671;DHT22;48397;53.016;-2.260;2023-03-08T09:38:43;3.10;99.90
44671;DHT22;48397;53.016;-2.260;2023-03-08T09:44:03;3.20;99.90
44671;DHT22;48397;53.016;-2.260;2023-03-08T09:46:40;3.30;99.90
44671;DHT22;48397;53.016;-2.260;2023-03-08T09:49:18;3.40;99.90
44671;DHT22;48397;53.016;-2.260;2023-03-08T09:51:50;3.30;99.90
44671;DHT22;48397;53.016;-2.260;2023-03-08T09:54:21;4.00;99.90
44671;DHT22;48397;53.016;-2.260;2023-03-08T09:56:52;3.50;99.90
44671;DHT22;48397;53.016;-2.260;2023-03-08T10:04:45;3.70;99.90
44671;DHT22;48397;53.016;-2.260;2023-03-08T10:08:00;3.70;99.90
44671;DHT22;48397;53.016;-2.260;2023-03-08T10:13:34;3.70;99.90
44671;DHT22;48397;53.016;-2.260;2023-03-08T10:16:10;3.70;99.90
44671;DHT22;48397;53.016;-2.260;2023-03-08T10:18:53;3.70;99.90
44671;DHT22;48397;53.016;-2.260;2023-03-08T10:21:23;3.80;99.90
44671;DHT22;48397;53.016;-2.260;2023-03-08T10:24:15;4.40;99.90
44671;DHT22;48397;53.016;-2.260;2023-03-08T10:26:45;3.80;99.90
44671;DHT22;48397;53.016;-2.260;2023-03-08T10:29:13;5.60;99.90
44671;DHT22;48397;53.016;-2.260;2023-03-08T10:31:41;3.70;99.90
44671;DHT22;48397;53.016;-2.260;2023-03-08T10:39:20;3.80;99.90
44671;DHT22;48397;53.016;-2.260;2023-03-08T10:41:51;3.80;99.90
44671;DHT22;48397;53.016;-2.260;2023-03-08T10:44:44;3.80;99.90
44671;DHT22;48397;53.016;-2.260;2023-03-08T10:47:26;3.80;99.90
44671;DHT22;48397;53.016;-2.260;2023-03-08T10:50:17;3.70;99.90
44671;DHT22;48397;53.016;-2.260;2023-03-08T10:52:47;3.80;99.90
44671;DHT22;48397;53.016;-2.260;2023-03-08T10:57:54;3.90;99.90
44671;DHT22;48397;53.016;-2.260;2023-03-08T11:00:37;3.90;99.90
44671;DHT22;48397;53.016;-2.260;2023-03-08T11:03:17;4.10;99.90
44671;DHT22;48397;53.016;-2.260;2023-03-08T11:05:58;4.10;99.90
44671;DHT22;48397;53.016;-2.260;2023-03-08T11:08:36;4.20;99.90
44671;DHT22;48397;53.016;-2.260;2023-03-08T11:11:06;4.20;99.90
44671;DHT22;48397;53.016;-2.260;2023-03-08T11:13:47;4.20;99.90
44671;DHT22;48397;53.016;-2.260;2023-03-08T11:24:38;4.10;99.90
44671;DHT22;48397;53.016;-2.260;2023-03-08T11:27:46;4.10;99.90
44671;DHT22;48397;53.016;-2.260;2023-03-08T11:38:32;4.30;99.90
44671;DHT22;48397;53.016;-2.260;2023-03-08T11:52:29;4.50;99.90
44671;DHT22;48397;53.016;-2.260;2023-03-08T11:57:50;4.60;99.90
44671;DHT22;48397;53.016;-2.260;2023-03-08T12:00:32;4.60;99.90
44671;DHT22;48397;53.016;-2.260;2023-03-08T12:03:09;4.70;99.90
44671;DHT22;48397;53.016;-2.260;2023-03-08T12:05:48;4.70;99.90
44671;DHT22;48397;53.016;-2.260;2023-03-08T12:08:28;4.70;99.90
44671;DHT22;48397;53.016;-2.260;2023-03-08T12:11:20;4.90;99.90
44671;DHT22;48397;53.016;-2.260;2023-03-08T12:13:54;4.90;99.90
44671;DHT22;48397;53.016;-2.260;2023-03-08T12:16:39;4.90;99.90
44671;DHT22;48397;53.016;-2.260;2023-03-08T12:27:57;5.10;99.90
44671;DHT22;48397;53.016;-2.260;2023-03-08T12:33:29;5.00;99.90
44671;DHT22;48397;53.016;-2.260;2023-03-08T12:36:01;5.00;99.90
44671;DHT22;48397;53.016;-2.260;2023-03-08T12:38:38;4.70;99.90
44671;DHT22;48397;53.016;-2.260;2023-03-08T12:41:25;4.60;99.90
44671;DHT22;48397;53.016;-2.260;2023-03-08T12:44:00;4.50;99.90
44671;DHT22;48397;53.016;-2.260;2023-03-08T12:46:53;4.40;99.90
44671;DHT22;48397;53.016;-2.260;2023-03-08T12:49:32;4.40;99.90
44671;DHT22;48397;53.016;-2.260;2023-03-08T12:52:22;4.30;99.90
44671;DHT22;48397;53.016;-2.260;2023-03-08T12:55:19;4.30;99.90
44671;DHT22;48397;53.016;-2.260;2023-03-08T12:57:53;4.20;99.90
44671;DHT22;48397;53.016;-2.260;2023-03-08T13:00:35;4.20;99.90
44671;DHT22;48397;53.016;-2.260;2023-03-08T13:05:45;4.00;99.90
44671;DHT22;48397;53.016;-2.260;2023-03-08T13:08:21;4.00;99.90
44671;DHT22;48397;53.016;-2.260;2023-03-08T13:10:57;3.90;99.90
44671;DHT22;48397;53.016;-2.260;2023-03-08T13:13:55;3.90;99.90
44671;DHT22;48397;53.016;-2.260;2023-03-08T13:25:13;3.20;99.90
44671;DHT22;48397;53.016;-2.260;2023-03-08T13:28:03;3.20;99.90
44671;DHT22;48397;53.016;-2.260;2023-03-08T13:30:34;3.10;99.90
44671;DHT22;48397;53.016;-2.260;2023-03-08T13:33:07;3.10;99.90
44671;DHT22;48397;53.016;-2.260;2023-03-08T13:35:38;3.00;99.90
44671;DHT22;48397;53.016;-2.260;2023-03-08T13:38:22;3.00;99.90
44671;DHT22;48397;53.016;-2.260;2023-03-08T13:40:51;2.90;99.90
44671;DHT22;48397;53.016;-2.260;2023-03-08T13:45:38;2.80;99.90
44671;DHT22;48397;53.016;-2.260;2023-03-08T13:48:08;2.80;99.90
44671;DHT22;48397;53.016;-2.260;2023-03-08T13:50:42;2.80;99.90
44671;DHT22;48397;53.016;-2.260;2023-03-08T13:53:20;2.90;99.90
44671;DHT22;48397;53.016;-2.260;2023-03-08T13:55:52;2.90;99.90
44671;DHT22;48397;53.016;-2.260;2023-03-08T14:03:42;2.90;99.90
44671;DHT22;48397;53.016;-2.260;2023-03-08T14:06:26;2.90;99.90
44671;DHT22;48397;53.016;-2.260;2023-03-08T14:08:58;2.90;99.90
44671;DHT22;48397;53.016;-2.260;2023-03-08T14:11:31;2.90;99.90
44671;DHT22;48397;53.016;-2.260;2023-03-08T14:14:01;2.90;99.90
44671;DHT22;48397;53.016;-2.260;2023-03-08T14:16:33;3.00;99.90
44671;DHT22;48397;53.016;-2.260;2023-03-08T14:19:34;3.00;99.90
44671;DHT22;48397;53.016;-2.260;2023-03-08T14:22:23;3.10;99.90
44671;DHT22;48397;53.016;-2.260;2023-03-08T14:25:19;3.10;99.90
44671;DHT22;48397;53.016;-2.260;2023-03-08T14:27:48;3.10;99.90
44671;DHT22;48397;53.016;-2.260;2023-03-08T14:30:17;3.10;99.90
44671;DHT22;48397;53.016;-2.260;2023-03-08T14:35:30;3.10;99.90
44671;DHT22;48397;53.016;-2.260;2023-03-08T14:37:58;3.20;99.90
44671;DHT22;48397;53.016;-2.260;2023-03-08T14:43:03;3.20;99.90
44671;DHT22;48397;53.016;-2.260;2023-03-08T14:45:59;3.30;99.90
44671;DHT22;48397;53.016;-2.260;2023-03-08T14:48:35;3.30;99.90
44671;DHT22;48397;53.016;-2.260;2023-03-08T14:51:04;3.30;99.90
44671;DHT22;48397;53.016;-2.260;2023-03-08T14:53:38;3.30;99.90
44671;DHT22;48397;53.016;-2.260;2023-03-08T14:56:11;3.30;99.90
44671;DHT22;48397;53.016;-2.260;2023-03-08T14:58:44;3.30;99.90
44671;DHT22;48397;53.016;-2.260;2023-03-08T15:01:27;3.30;99.90
44671;DHT22;48397;53.016;-2.260;2023-03-08T15:03:56;3.30;99.90
44671;DHT22;48397;53.016;-2.260;2023-03-08T15:06:28;3.30;99.90
44671;DHT22;48397;53.016;-2.260;2023-03-08T15:08:57;3.40;99.90
44671;DHT22;48397;53.016;-2.260;2023-03-08T15:11:26;3.40;99.90
44671;DHT22;48397;53.016;-2.260;2023-03-08T15:13:58;3.40;99.90
44671;DHT22;48397;53.016;-2.260;2023-03-08T15:16:26;3.40;99.90
44671;DHT22;48397;53.016;-2.260;2023-03-08T15:18:54;3.50;99.90
44671;DHT22;48397;53.016;-2.260;2023-03-08T15:21:24;3.50;99.90
44671;DHT22;48397;53.016;-2.260;2023-03-08T15:23:52;3.50;99.90
44671;DHT22;48397;53.016;-2.260;2023-03-08T15:26:25;3.50;99.90
44671;DHT22;48397;53.016;-2.260;2023-03-08T15:28:54;3.50;99.90
44671;DHT22;48397;53.016;-2.260;2023-03-08T15:31:22;3.40;99.90
44671;DHT22;48397;53.016;-2.260;2023-03-08T15:33:50;3.30;99.90
44671;DHT22;48397;53.016;-2.260;2023-03-08T15:36:18;3.30;99.90
44671;DHT22;48397;53.016;-2.260;2023-03-08T15:38:45;3.30;99.90
44671;DHT22;48397;53.016;-2.260;2023-03-08T15:41:16;3.20;99.90
44671;DHT22;48397;53.016;-2.260;2023-03-08T15:43:44;3.10;99.90
44671;DHT22;48397;53.016;-2.260;2023-03-08T15:46:13;3.20;99.90
44671;DHT22;48397;53.016;-2.260;2023-03-08T15:48:41;3.10;99.90
44671;DHT22;48397;53.016;-2.260;2023-03-08T15:51:19;3.10;99.90
44671;DHT22;48397;53.016;-2.260;2023-03-08T15:53:48;3.10;99.90
44671;DHT22;48397;53.016;-2.260;2023-03-08T15:56:16;3.10;99.90
44671;DHT22;48397;53.016;-2.260;2023-03-08T16:01:12;3.00;99.90
44671;DHT22;48397;53.016;-2.260;2023-03-08T16:03:40;3.00;99.90
44671;DHT22;48397;53.016;-2.260;2023-03-08T16:06:13;3.00;99.90
44671;DHT22;48397;53.016;-2.260;2023-03-08T16:08:43;3.10;99.90
44671;DHT22;48397;53.016;-2.260;2023-03-08T16:11:13;3.20;99.90
44671;DHT22;48397;53.016;-2.260;2023-03-08T16:13:41;3.10;99.90
44671;DHT22;48397;53.016;-2.260;2023-03-08T16:16:09;3.20;99.90
44671;DHT22;48397;53.016;-2.260;2023-03-08T16:18:37;3.20;99.90
44671;DHT22;48397;53.016;-2.260;2023-03-08T16:21:07;3.10;99.90
44671;DHT22;48397;53.016;-2.260;2023-03-08T16:23:37;3.00;99.90
44671;DHT22;48397;53.016;-2.260;2023-03-08T16:26:07;2.90;99.90
44671;DHT22;48397;53.016;-2.260;2023-03-08T16:28:44;2.80;99.90
44671;DHT22;48397;53.016;-2.260;2023-03-08T16:31:13;2.70;99.90
44671;DHT22;48397;53.016;-2.260;2023-03-08T16:33:41;1.30;99.90
44671;DHT22;48397;53.016;-2.260;2023-03-08T16:36:09;2.60;99.90
44671;DHT22;48397;53.016;-2.260;2023-03-08T16:38:38;2.50;99.90
44671;DHT22;48397;53.016;-2.260;2023-03-08T16:41:06;2.50;99.90
44671;DHT22;48397;53.016;-2.260;2023-03-08T16:43:41;2.50;99.90
44671;DHT22;48397;53.016;-2.260;2023-03-08T16:46:18;2.50;99.90
44671;DHT22;48397;53.016;-2.260;2023-03-08T16:48:48;2.40;99.90
44671;DHT22;48397;53.016;-2.260;2023-03-08T16:51:18;2.40;99.90
44671;DHT22;48397;53.016;-2.260;2023-03-08T16:53:47;2.40;99.90
44671;DHT22;48397;53.016;-2.260;2023-03-08T16:56:19;2.40;99.90
44671;DHT22;48397;53.016;-2.260;2023-03-08T16:58:48;2.30;99.90
44671;DHT22;48397;53.016;-2.260;2023-03-08T17:01:17;2.40;99.90
44671;DHT22;48397;53.016;-2.260;2023-03-08T17:03:46;2.30;99.90
44671;DHT22;48397;53.016;-2.260;2023-03-08T17:06:15;2.30;99.90
44671;DHT22;48397;53.016;-2.260;2023-03-08T17:08:43;2.30;99.90
44671;DHT22;48397;53.016;-2.260;2023-03-08T17:11:19;2.30;99.90
44671;DHT22;48397;53.016;-2.260;2023-03-08T17:13:53;2.20;99.90
44671;DHT22;48397;53.016;-2.260;2023-03-08T17:16:24;2.30;99.90
44671;DHT22;48397;53.016;-2.260;2023-03-08T17:18:52;2.30;99.90
44671;DHT22;48397;53.016;-2.260;2023-03-08T17:21:21;2.30;99.90
44671;DHT22;48397;53.016;-2.260;2023-03-08T17:23:50;2.30;99.90
44671;DHT22;48397;53.016;-2.260;2023-03-08T17:26:20;2.20;99.90
44671;DHT22;48397;53.016;-2.260;2023-03-08T17:28:52;2.20;99.90
44671;DHT22;48397;53.016;-2.260;2023-03-08T17:31:22;2.20;99.90
44671;DHT22;48397;53.016;-2.260;2023-03-08T17:33:50;2.20;99.90
44671;DHT22;48397;53.016;-2.260;2023-03-08T17:36:18;2.20;99.90
44671;DHT22;48397;53.016;-2.260;2023-03-08T17:38:46;2.10;99.90
44671;DHT22;48397;53.016;-2.260;2023-03-08T17:41:15;2.10;99.90